Time;durP1;ratioP1;P1;durP2;ratioP2;P2;SDS_P1;SDS_P2;PMS_P1;PMS_P2;Temp;Humidity;BMP_temperature;BMP_pressure;BME280_temperature;BME280_humidity;BME280_pressure;Samples;Min_cycle;Max_cycle;Signal;HPM_P1;HPM_P2
2023/01/01 00:01:11;;;;;;;3.70;1.70;;;11.30;99.90;;;;;;5075797;28;20453;-83
2023/01/01 00:03:40;;;;;;;5.17;2.20;;;11.30;99.90;;;;;;5075657;28;20469;-83
2023/01/01 00:06:07;;;;;;;4.77;1.73;;;11.30;99.90;;;;;;5075768;28;20446;-84
2023/01/01 00:08:35;;;;;;;4.40;2.03;;;11.30;99.90;;;;;;5075744;28;20446;-83
2023/01/01 00:11:01;;;;;;;2.50;1.67;;;11.40;99.90;;;;;;5075428;28;20449;-83
2023/01/01 00:13:27;;;;;;;2.33;1.23;;;11.40;99.90;;;;;;5075268;28;20493;-84
2023/01/01 00:15:54;;;;;;;2.20;1.50;;;11.40;99.90;;;;;;5080261;28;20445;-83
2023/01/01 00:18:21;;;;;;;4.13;1.20;;;11.30;99.90;;;;;;5075574;28;20456;-83
2023/01/01 00:20:49;;;;;;;4.83;1.40;;;11.30;99.90;;;;;;5075437;28;20452;-84
2023/01/01 00:23:16;;;;;;;2.13;1.20;;;11.20;99.90;;;;;;5075035;28;21068;-84
2023/01/01 00:25:43;;;;;;;3.73;1.43;;;11.20;99.90;;;;;;5075398;28;20800;-83
2023/01/01 00:28:10;;;;;;;3.10;1.87;;;11.20;99.90;;;;;;5075314;28;20886;-84
2023/01/01 00:30:40;;;;;;;6.47;2.00;;;11.30;99.90;;;;;;5075164;28;20453;-83
2023/01/01 00:33:07;;;;;;;1.67;1.20;;;11.30;99.90;;;;;;5074888;28;20437;-83
2023/01/01 00:35:33;;;;;;;2.10;1.30;;;11.40;99.90;;;;;;5075123;28;20461;-84
2023/01/01 00:38:02;;;;;;;3.00;1.33;;;11.40;99.90;;;;;;5075076;28;20454;-83
2023/01/01 00:40:28;;;;;;;1.57;1.10;;;11.50;99.90;;;;;;5075033;28;20460;-83
2023/01/01 00:42:55;;;;;;;3.23;2.03;;;11.50;99.90;;;;;;5074962;28;20449;-83
2023/01/01 00:45:22;;;;;;;3.77;1.70;;;11.50;99.90;;;;;;5074885;28;20457;-83
2023/01/01 00:47:49;;;;;;;1.07;1.07;;;11.60;99.90;;;;;;5075096;28;20449;-83
2023/01/01 00:50:16;;;;;;;4.30;1.17;;;11.60;99.90;;;;;;5074870;28;20811;-83
2023/01/01 00:52:43;;;;;;;2.87;1.87;;;11.60;99.90;;;;;;5074814;28;20446;-84
2023/01/01 00:55:11;;;;;;;8.63;1.90;;;11.50;99.90;;;;;;5074563;28;20489;-84
2023/01/01 00:57:38;;;;;;;1.40;1.07;;;11.50;99.90;;;;;;5074347;28;20933;-83
2023/01/01 01:00:06;;;;;;;1.40;1.20;;;11.50;99.90;;;;;;5074448;28;20447;-84
2023/01/01 01:02:33;;;;;;;1.70;1.33;;;11.50;99.90;;;;;;5074542;28;20438;-84
2023/01/01 01:05:00;;;;;;;5.50;1.83;;;11.50;99.90;;;;;;5074431;28;20461;-84
2023/01/01 01:07:27;;;;;;;3.73;1.97;;;11.50;99.90;;;;;;5074377;28;20540;-84
2023/01/01 01:09:53;;;;;;;3.80;3.50;;;11.40;99.90;;;;;;5074402;28;20457;-83
2023/01/01 01:12:21;;;;;;;6.33;2.20;;;11.50;99.90;;;;;;5074179;28;20445;-84
2023/01/01 01:14:48;;;;;;;11.13;2.80;;;11.50;99.90;;;;;;5075021;28;20485;-83
2023/01/01 01:17:15;;;;;;;4.67;2.80;;;11.50;99.90;;;;;;5074254;28;20456;-84
2023/01/01 01:19:42;;;;;;;10.40;3.20;;;11.50;99.90;;;;;;5074271;28;20457;-84
2023/01/01 01:22:08;;;;;;;10.43;3.40;;;11.40;99.90;;;;;;5074189;28;20434;-83
2023/01/01 01:24:35;;;;;;;17.30;5.50;;;11.40;99.90;;;;;;5073980;28;21000;-84
2023/01/01 01:27:02;;;;;;;4.87;3.17;;;11.30;99.90;;;;;;5074024;28;20449;-84
2023/01/01 01:29:30;;;;;;;11.10;2.97;;;11.30;99.90;;;;;;5074054;28;20461;-84
2023/01/01 01:31:56;;;;;;;4.93;3.10;;;11.30;99.90;;;;;;5074005;28;20445;-83
2023/01/01 01:34:23;;;;;;;4.57;2.50;;;11.20;99.90;;;;;;5073837;28;20489;-84
2023/01/01 01:36:51;;;;;;;3.93;2.17;;;11.20;99.90;;;;;;5073948;28;20445;-84
2023/01/01 01:39:18;;;;;;;6.53;1.33;;;11.20;99.90;;;;;;5073863;28;20886;-83
2023/01/01 01:41:45;;;;;;;3.17;1.57;;;11.20;99.90;;;;;;5073530;28;20449;-84
2023/01/01 01:44:56;;;;;;;3.33;1.60;;;11.20;99.90;;;;;;5073415;28;20462;-84
2023/01/01 01:47:32;;;;;;;2.50;1.63;;;11.30;99.90;;;;;;5011785;28;20815;-84
2023/01/01 01:50:06;;;;;;;2.83;1.10;;;11.30;99.90;;;;;;5062785;28;20461;-84
2023/01/01 01:52:36;;;;;;;1.33;1.20;;;11.40;99.90;;;;;;5073674;28;20429;-84
2023/01/01 01:55:07;;;;;;;1.60;1.03;;;11.40;99.90;;;;;;5073509;28;20485;-84
2023/01/01 01:57:35;;;;;;;1.17;0.80;;;11.40;99.90;;;;;;5073705;28;20446;-84
2023/01/01 02:00:03;;;;;;;1.27;0.83;;;11.30;99.90;;;;;;5073566;28;20457;-84
2023/01/01 02:02:35;;;;;;;2.07;0.97;;;11.40;99.90;;;;;;5073598;28;20457;-84
2023/01/01 02:05:02;;;;;;;1.40;0.90;;;11.40;99.90;;;;;;5073162;28;20472;-84
2023/01/01 02:07:32;;;;;;;1.53;1.00;;;11.50;99.90;;;;;;5073188;28;20940;-84
2023/01/01 02:10:00;;;;;;;1.00;0.90;;;11.50;99.90;;;;;;5073458;28;20451;-83
2023/01/01 02:12:27;;;;;;;1.50;0.87;;;11.50;99.90;;;;;;5072768;28;20487;-84
2023/01/01 02:14:54;;;;;;;2.60;1.07;;;11.60;99.90;;;;;;5073314;28;20880;-84
2023/01/01 02:17:28;;;;;;;0.97;0.70;;;11.60;99.90;;;;;;5073413;28;20445;-84
2023/01/01 02:20:10;;;;;;;6.20;0.90;;;11.60;99.90;;;;;;5073172;28;20445;-83
2023/01/01 02:23:05;;;;;;;0.73;0.70;;;11.50;99.90;;;;;;5073387;28;20504;-83
2023/01/01 02:25:44;;;;;;;1.70;1.13;;;11.50;99.90;;;;;;5072967;28;20470;-84
2023/01/01 02:28:19;;;;;;;1.73;0.77;;;11.50;99.90;;;;;;5073256;28;20430;-83
2023/01/01 02:30:49;;;;;;;0.93;0.70;;;11.50;99.90;;;;;;5073252;28;20437;-84
2023/01/01 02:33:21;;;;;;;1.50;1.13;;;11.50;99.90;;;;;;5073070;28;20953;-84
2023/01/01 02:35:54;;;;;;;0.93;0.70;;;11.50;99.90;;;;;;5073225;28;20473;-83
2023/01/01 02:38:25;;;;;;;8.80;1.40;;;11.60;99.90;;;;;;5073255;28;20422;-84
2023/01/01 02:40:56;;;;;;;1.40;0.90;;;11.60;99.90;;;;;;5073222;28;20453;-83
2023/01/01 02:43:23;;;;;;;0.70;0.57;;;11.70;99.90;;;;;;5073362;28;20434;-83
2023/01/01 02:45:51;;;;;;;1.50;0.70;;;11.70;99.90;;;;;;5072846;28;20441;-84
2023/01/01 02:48:40;;;;;;;0.50;0.50;;;11.70;99.90;;;;;;5073055;28;20540;-84
2023/01/01 02:51:16;;;;;;;3.30;1.03;;;11.70;99.90;;;;;;5073056;28;20434;-84
2023/01/01 02:53:48;;;;;;;2.13;1.50;;;11.70;99.90;;;;;;5072637;28;20976;-84
2023/01/01 02:56:27;;;;;;;1.90;1.80;;;11.70;99.90;;;;;;5073872;28;20438;-83
2023/01/01 03:01:58;;;;;;;1.80;1.17;;;11.60;99.90;;;;;;5072809;28;20770;-83
2023/01/01 03:04:31;;;;;;;2.93;0.97;;;11.50;99.90;;;;;;5072927;28;20457;-84
2023/01/01 03:07:10;;;;;;;3.00;0.90;;;11.50;99.90;;;;;;5072976;28;20437;-84
2023/01/01 03:09:47;;;;;;;1.10;1.00;;;11.50;99.90;;;;;;5072642;28;20810;-83
2023/01/01 03:12:22;;;;;;;1.30;0.60;;;11.50;99.90;;;;;;5072636;28;20437;-83
2023/01/01 03:14:56;;;;;;;0.60;0.60;;;11.50;99.90;;;;;;5072756;28;20487;-84
2023/01/01 03:17:30;;;;;;;1.57;0.90;;;11.50;99.90;;;;;;5072965;28;20453;-83
2023/01/01 03:20:01;;;;;;;2.63;1.07;;;11.50;99.90;;;;;;5072841;28;20466;-84
2023/01/01 03:22:31;;;;;;;1.23;0.60;;;11.50;99.90;;;;;;5072862;28;20799;-84
2023/01/01 03:25:00;;;;;;;0.63;0.53;;;11.50;99.90;;;;;;5074818;28;20975;-84
2023/01/01 03:27:31;;;;;;;0.93;0.80;;;11.50;99.90;;;;;;5076096;28;20441;-84
2023/01/01 03:30:02;;;;;;;3.70;0.60;;;11.50;99.90;;;;;;5076471;28;20438;-83
2023/01/01 03:35:19;;;;;;;0.43;0.43;;;11.50;99.90;;;;;;5075550;28;20576;-83
2023/01/01 03:37:48;;;;;;;0.80;0.50;;;11.50;99.90;;;;;;5075888;28;20959;-84
2023/01/01 03:40:17;;;;;;;0.83;0.67;;;11.40;99.90;;;;;;5076443;28;20437;-84
2023/01/01 03:42:49;;;;;;;7.50;0.80;;;11.40;99.90;;;;;;5076173;28;20453;-84
2023/01/01 03:45:20;;;;;;;0.60;0.60;;;11.40;99.90;;;;;;5076088;28;20470;-84
2023/01/01 03:47:48;;;;;;;0.83;0.83;;;11.40;99.90;;;;;;5076091;28;20434;-84
2023/01/01 03:50:16;;;;;;;1.80;0.73;;;11.30;99.90;;;;;;5076092;28;20449;-84
2023/01/01 03:52:51;;;;;;;1.67;0.60;;;11.30;99.90;;;;;;5075646;28;20821;-84
2023/01/01 03:55:23;;;;;;;0.80;0.50;;;11.30;99.90;;;;;;5075806;28;20493;-84
2023/01/01 03:57:57;;;;;;;2.73;0.97;;;11.20;99.90;;;;;;5075906;28;20453;-84
2023/01/01 04:00:26;;;;;;;2.87;0.90;;;11.20;99.90;;;;;;5075573;28;20794;-84
2023/01/01 04:02:58;;;;;;;1.50;0.50;;;11.20;99.90;;;;;;5075440;28;20856;-84
2023/01/01 04:05:26;;;;;;;0.70;0.70;;;11.10;99.90;;;;;;5075788;28;20488;-83
2023/01/01 04:07:54;;;;;;;1.60;0.90;;;11.10;99.90;;;;;;5075677;28;20450;-84
2023/01/01 04:10:21;;;;;;;5.70;1.30;;;11.00;99.90;;;;;;5075672;28;20450;-83
2023/01/01 04:12:50;;;;;;;1.00;0.77;;;11.00;99.90;;;;;;5075448;28;20484;-84
2023/01/01 04:15:17;;;;;;;0.60;0.60;;;10.90;99.90;;;;;;5075479;28;20489;-84
2023/01/01 04:17:44;;;;;;;3.63;1.00;;;10.90;99.90;;;;;;5075219;28;20438;-84
2023/01/01 04:20:12;;;;;;;1.50;1.27;;;10.90;99.90;;;;;;5075819;28;20457;-83
2023/01/01 04:22:39;;;;;;;0.60;0.60;;;10.90;99.90;;;;;;5075068;28;20450;-83
2023/01/01 04:25:08;;;;;;;4.23;1.03;;;10.80;99.90;;;;;;5075358;28;20465;-83
2023/01/01 04:27:35;;;;;;;2.40;1.30;;;10.80;99.90;;;;;;5075569;28;20456;-84
2023/01/01 04:30:01;;;;;;;1.23;0.60;;;10.80;99.90;;;;;;5075320;28;20484;-83
2023/01/01 04:32:29;;;;;;;1.60;0.90;;;10.80;99.90;;;;;;5075233;28;20460;-84
2023/01/01 04:34:56;;;;;;;0.90;0.90;;;10.80;99.90;;;;;;5074380;28;20478;-84
2023/01/01 04:37:24;;;;;;;1.57;0.70;;;10.80;99.90;;;;;;5074901;28;20442;-83
2023/01/01 04:39:52;;;;;;;1.43;1.10;;;10.90;99.90;;;;;;5075024;28;20457;-84
2023/01/01 04:42:19;;;;;;;1.13;0.80;;;10.80;99.90;;;;;;5075354;28;20442;-84
2023/01/01 04:44:46;;;;;;;2.20;0.80;;;10.80;99.90;;;;;;5074840;28;20466;-84
2023/01/01 04:47:13;;;;;;;2.93;0.93;;;10.90;99.90;;;;;;5075190;28;20449;-83
2023/01/01 04:49:39;;;;;;;2.03;0.53;;;10.80;99.90;;;;;;5074871;28;20454;-84
2023/01/01 04:52:06;;;;;;;0.83;0.60;;;10.80;99.90;;;;;;5074860;28;20818;-84
2023/01/01 04:54:34;;;;;;;0.50;0.40;;;10.90;99.90;;;;;;5074372;28;20992;-84
2023/01/01 04:57:01;;;;;;;0.40;0.40;;;10.90;99.90;;;;;;5074539;28;20425;-83
2023/01/01 04:59:29;;;;;;;0.70;0.50;;;10.90;99.90;;;;;;5074662;28;20823;-83
2023/01/01 05:01:56;;;;;;;0.83;0.83;;;10.90;99.90;;;;;;5074618;28;20452;-84
2023/01/01 05:04:23;;;;;;;0.57;0.57;;;10.90;99.90;;;;;;5074536;28;20575;-84
2023/01/01 05:06:50;;;;;;;0.53;0.40;;;10.80;99.90;;;;;;5074546;28;20442;-84
2023/01/01 05:09:16;;;;;;;0.60;0.53;;;10.80;99.90;;;;;;5074187;28;20808;-84
2023/01/01 05:11:44;;;;;;;0.70;0.60;;;10.90;99.90;;;;;;5074172;28;20445;-84
2023/01/01 05:14:11;;;;;;;4.63;1.10;;;10.80;99.90;;;;;;5074177;28;20489;-84
2023/01/01 05:16:40;;;;;;;0.60;0.50;;;10.80;99.90;;;;;;5074304;28;20489;-83
2023/01/01 05:19:08;;;;;;;0.60;0.60;;;10.80;99.90;;;;;;5074305;28;20453;-84
2023/01/01 05:21:37;;;;;;;1.70;0.50;;;10.80;99.90;;;;;;5074854;28;20532;-84
2023/01/01 05:24:06;;;;;;;1.43;0.73;;;10.90;99.90;;;;;;5074120;28;20469;-83
2023/01/01 05:26:35;;;;;;;1.00;0.70;;;10.90;99.90;;;;;;5074134;28;20451;-84
2023/01/01 05:29:04;;;;;;;3.53;0.63;;;10.90;99.90;;;;;;5074071;28;20819;-84
2023/01/01 05:31:33;;;;;;;0.50;0.50;;;10.90;99.90;;;;;;5074061;28;20458;-83
2023/01/01 05:34:00;;;;;;;0.73;0.60;;;10.80;99.90;;;;;;5073950;28;20469;-84
2023/01/01 05:36:29;;;;;;;1.17;0.40;;;10.80;99.90;;;;;;5073833;28;20500;-84
2023/01/01 05:38:56;;;;;;;1.27;0.83;;;10.80;99.90;;;;;;5073904;28;20763;-84
2023/01/01 05:41:23;;;;;;;0.70;0.70;;;10.90;99.90;;;;;;5073879;28;20449;-84
2023/01/01 05:43:50;;;;;;;1.37;0.70;;;10.90;99.90;;;;;;5073806;28;20465;-84
2023/01/01 05:46:20;;;;;;;0.77;0.60;;;10.90;99.90;;;;;;5073259;28;20833;-83
2023/01/01 05:48:47;;;;;;;0.60;0.53;;;10.90;99.90;;;;;;5074056;28;20460;-84
2023/01/01 05:51:16;;;;;;;0.50;0.50;;;10.90;99.90;;;;;;5073479;28;20433;-84
2023/01/01 05:53:43;;;;;;;2.20;1.20;;;10.90;99.90;;;;;;5073648;28;20462;-84
2023/01/01 05:56:11;;;;;;;0.63;0.63;;;10.90;99.90;;;;;;5073320;28;20922;-83
2023/01/01 05:58:38;;;;;;;0.70;0.60;;;10.90;99.90;;;;;;5073680;28;20450;-84
2023/01/01 06:01:07;;;;;;;1.93;1.10;;;10.90;99.90;;;;;;5073612;28;20468;-84
2023/01/01 06:03:35;;;;;;;2.23;0.70;;;10.80;99.90;;;;;;5073545;28;20465;-83
2023/01/01 06:06:06;;;;;;;2.40;0.80;;;10.80;99.90;;;;;;5073576;28;20437;-84
2023/01/01 06:08:33;;;;;;;1.13;0.50;;;10.80;99.90;;;;;;5073526;28;20445;-84
2023/01/01 06:11:01;;;;;;;0.77;0.77;;;10.80;99.90;;;;;;5073448;28;20458;-84
2023/01/01 06:13:28;;;;;;;2.37;0.60;;;10.70;99.90;;;;;;5073192;28;20484;-84
2023/01/01 06:15:55;;;;;;;0.83;0.70;;;10.80;99.90;;;;;;5073393;28;20488;-84
2023/01/01 06:18:23;;;;;;;0.40;0.40;;;10.80;99.90;;;;;;5073105;28;20798;-84
2023/01/01 06:20:52;;;;;;;1.57;0.50;;;10.70;99.90;;;;;;5073396;28;20441;-83
2023/01/01 06:23:18;;;;;;;1.07;0.70;;;10.60;99.90;;;;;;5073302;28;20456;-83
2023/01/01 06:25:45;;;;;;;3.27;0.77;;;10.60;99.90;;;;;;5073098;28;20820;-83
2023/01/01 06:28:12;;;;;;;1.90;0.70;;;10.60;99.90;;;;;;5073030;28;20815;-83
2023/01/01 06:30:39;;;;;;;2.53;0.60;;;10.60;99.90;;;;;;5073152;28;20448;-84
2023/01/01 06:33:05;;;;;;;0.90;0.53;;;10.60;99.90;;;;;;5073011;28;20441;-84
2023/01/01 06:35:32;;;;;;;0.90;0.50;;;10.60;99.90;;;;;;5073095;28;20511;-84
2023/01/01 06:38:00;;;;;;;0.97;0.77;;;10.60;99.90;;;;;;5073321;28;20830;-83
2023/01/01 06:40:27;;;;;;;1.37;0.60;;;10.60;99.90;;;;;;5073049;28;20429;-84
2023/01/01 06:42:54;;;;;;;1.20;0.50;;;10.60;99.90;;;;;;5072895;28;20462;-84
2023/01/01 06:45:20;;;;;;;0.50;0.50;;;10.50;99.90;;;;;;5072968;28;20470;-83
2023/01/01 06:47:47;;;;;;;0.60;0.60;;;10.50;99.90;;;;;;5073130;28;20448;-84
2023/01/01 06:50:14;;;;;;;1.53;0.80;;;10.50;99.90;;;;;;5073101;28;20453;-84
2023/01/01 06:52:41;;;;;;;3.80;0.77;;;10.40;99.90;;;;;;5072982;28;20445;-83
2023/01/01 06:55:09;;;;;;;0.93;0.53;;;10.50;99.90;;;;;;5072883;28;20484;-84
2023/01/01 06:57:36;;;;;;;0.40;0.40;;;10.50;99.90;;;;;;5073577;28;20446;-84
2023/01/01 07:00:03;;;;;;;1.50;0.60;;;10.40;99.90;;;;;;5077037;28;20449;-84
2023/01/01 07:02:30;;;;;;;0.60;0.60;;;10.40;99.90;;;;;;5076871;28;20449;-84
2023/01/01 07:04:56;;;;;;;2.00;0.40;;;10.40;99.90;;;;;;5076768;28;20480;-83
2023/01/01 07:07:23;;;;;;;1.17;0.80;;;10.40;99.90;;;;;;5076460;28;20448;-83
2023/01/01 07:09:50;;;;;;;0.70;0.70;;;10.40;99.90;;;;;;5076808;28;20448;-83
2023/01/01 07:12:18;;;;;;;0.77;0.50;;;10.40;99.90;;;;;;5076543;28;20452;-84
2023/01/01 07:14:45;;;;;;;1.23;0.83;;;10.30;99.90;;;;;;5076362;28;21008;-84
2023/01/01 07:17:11;;;;;;;0.50;0.47;;;10.30;99.90;;;;;;5076570;28;20480;-84
2023/01/01 07:19:38;;;;;;;0.50;0.47;;;10.30;99.90;;;;;;5076697;28;20830;-83
2023/01/01 07:22:05;;;;;;;2.70;0.70;;;10.30;99.90;;;;;;5076221;28;20452;-84
2023/01/01 07:24:31;;;;;;;1.07;0.97;;;10.40;99.90;;;;;;5076423;28;20477;-84
2023/01/01 07:26:58;;;;;;;1.60;0.90;;;10.40;99.90;;;;;;5076274;28;20441;-84
2023/01/01 07:29:26;;;;;;;0.90;0.70;;;10.40;99.90;;;;;;5076375;28;20505;-84
2023/01/01 07:31:53;;;;;;;1.00;0.70;;;10.40;99.90;;;;;;5076066;28;20456;-84
2023/01/01 07:34:21;;;;;;;1.57;0.60;;;10.40;99.90;;;;;;5076333;28;20465;-84
2023/01/01 07:36:48;;;;;;;1.40;0.70;;;10.50;99.90;;;;;;5076496;28;20473;-84
2023/01/01 07:39:15;;;;;;;0.80;0.50;;;10.60;99.90;;;;;;5076494;28;20472;-84
2023/01/01 07:41:41;;;;;;;0.90;0.50;;;10.60;99.90;;;;;;5076223;28;20456;-84
2023/01/01 07:44:08;;;;;;;1.00;1.00;;;10.60;99.90;;;;;;5076146;28;20472;-83
2023/01/01 07:46:37;;;;;;;0.57;0.57;;;10.60;99.90;;;;;;5075899;28;20448;-84
2023/01/01 07:49:04;;;;;;;2.23;0.60;;;10.70;99.90;;;;;;5076037;28;20461;-83
2023/01/01 07:51:31;;;;;;;1.73;0.73;;;10.70;99.90;;;;;;5076046;28;20445;-84
2023/01/01 07:53:58;;;;;;;0.40;0.40;;;10.70;99.90;;;;;;5075889;28;20473;-84
2023/01/01 07:56:24;;;;;;;0.93;0.53;;;10.70;99.90;;;;;;5075545;28;20477;-84
2023/01/01 07:58:51;;;;;;;0.80;0.70;;;10.70;99.90;;;;;;5075570;28;20962;-84
2023/01/01 08:01:18;;;;;;;1.67;1.07;;;10.70;99.90;;;;;;5075524;28;20460;-84
2023/01/01 08:03:50;;;;;;;1.27;0.50;;;10.70;99.90;;;;;;5075779;28;20476;-83
2023/01/01 08:06:17;;;;;;;0.50;0.50;;;10.70;99.90;;;;;;5075958;28;20434;-84
2023/01/01 08:08:44;;;;;;;1.10;0.63;;;10.80;99.90;;;;;;5075503;28;20437;-84
2023/01/01 08:11:11;;;;;;;0.60;0.60;;;10.80;99.90;;;;;;5075121;28;20445;-83
2023/01/01 08:13:37;;;;;;;0.70;0.57;;;10.80;99.90;;;;;;5075104;28;20992;-84
2023/01/01 08:16:05;;;;;;;1.33;1.23;;;10.80;99.90;;;;;;5075284;28;20481;-83
2023/01/01 08:18:32;;;;;;;1.27;0.50;;;10.80;99.90;;;;;;5075660;28;20449;-84
2023/01/01 08:21:00;;;;;;;0.70;0.70;;;10.90;99.90;;;;;;5075541;28;20442;-84
2023/01/01 08:23:27;;;;;;;1.17;0.50;;;10.90;99.90;;;;;;5075343;28;20453;-84
2023/01/01 08:25:54;;;;;;;1.33;0.60;;;10.90;99.90;;;;;;5075347;28;20499;-83
2023/01/01 08:28:21;;;;;;;1.83;1.23;;;10.90;99.90;;;;;;5075201;28;20450;-84
2023/01/01 08:30:47;;;;;;;0.70;0.63;;;10.80;99.90;;;;;;5075295;28;20445;-83
2023/01/01 08:33:14;;;;;;;0.60;0.60;;;10.80;99.90;;;;;;5075153;28;20453;-84
2023/01/01 08:35:42;;;;;;;1.30;0.50;;;10.90;99.90;;;;;;5075415;28;20456;-83
2023/01/01 08:38:12;;;;;;;0.70;0.47;;;10.90;99.90;;;;;;5075110;28;20450;-84
2023/01/01 08:40:39;;;;;;;0.50;0.50;;;11.00;99.90;;;;;;5075132;28;20430;-84
2023/01/01 08:43:06;;;;;;;1.37;1.03;;;11.10;99.90;;;;;;5075195;28;20440;-84
2023/01/01 08:45:33;;;;;;;0.93;0.40;;;11.30;99.90;;;;;;5075428;28;20470;-84
2023/01/01 08:47:59;;;;;;;0.90;0.50;;;11.40;99.90;;;;;;5074782;28;20437;-84
2023/01/01 08:50:26;;;;;;;2.00;0.40;;;11.40;99.90;;;;;;5074922;28;20433;-83
2023/01/01 08:52:53;;;;;;;0.60;0.60;;;11.50;99.90;;;;;;5074821;28;20456;-83
2023/01/01 08:55:21;;;;;;;1.03;0.57;;;11.70;99.90;;;;;;5074772;28;20466;-84
2023/01/01 08:57:48;;;;;;;3.30;0.70;;;11.80;99.90;;;;;;5074710;28;20482;-83
2023/01/01 09:00:15;;;;;;;2.50;0.60;;;11.90;99.90;;;;;;5074385;28;20933;-83
2023/01/01 09:02:42;;;;;;;0.83;0.57;;;12.00;99.90;;;;;;5074596;28;20453;-83
2023/01/01 09:05:10;;;;;;;1.23;0.90;;;12.10;99.90;;;;;;5074508;28;20488;-84
2023/01/01 09:07:37;;;;;;;1.90;0.67;;;12.10;99.90;;;;;;5074497;28;20452;-82
2023/01/01 09:10:04;;;;;;;0.40;0.30;;;12.30;99.90;;;;;;5074245;28;20956;-83
2023/01/01 09:12:32;;;;;;;0.70;0.70;;;12.40;99.90;;;;;;5074184;28;20429;-84
2023/01/01 09:14:59;;;;;;;0.80;0.80;;;12.50;99.90;;;;;;5074337;28;20481;-83
2023/01/01 09:17:25;;;;;;;1.73;0.83;;;12.70;99.90;;;;;;5074224;28;20484;-83
2023/01/01 09:19:52;;;;;;;0.80;0.43;;;12.90;99.90;;;;;;5074281;28;20456;-83
2023/01/01 09:22:19;;;;;;;0.50;0.50;;;13.00;99.90;;;;;;5073204;28;20448;-83
2023/01/01 09:24:46;;;;;;;1.40;0.90;;;13.00;99.90;;;;;;5073846;28;20477;-83
2023/01/01 09:27:12;;;;;;;1.47;0.70;;;13.10;99.90;;;;;;5074170;28;20446;-83
2023/01/01 09:29:40;;;;;;;0.57;0.57;;;13.30;99.90;;;;;;5074362;28;20441;-83
2023/01/01 09:32:07;;;;;;;0.50;0.50;;;13.30;99.90;;;;;;5074047;28;20952;-83
2023/01/01 09:34:34;;;;;;;1.27;0.60;;;13.30;99.90;;;;;;5073954;28;20472;-83
2023/01/01 09:37:00;;;;;;;0.60;0.60;;;13.30;99.90;;;;;;5074166;28;20473;-83
2023/01/01 09:39:29;;;;;;;1.43;0.53;;;13.30;99.90;;;;;;5073950;28;20450;-83
2023/01/01 09:42:07;;;;;;;0.60;0.40;;;13.40;99.90;;;;;;5073860;28;20892;-83
2023/01/01 09:45:00;;;;;;;3.20;0.87;;;13.40;99.90;;;;;;5073513;28;20843;-84
2023/01/01 09:47:32;;;;;;;1.07;0.67;;;13.40;99.90;;;;;;5073865;28;20794;-83
2023/01/01 09:50:03;;;;;;;1.23;0.70;;;13.40;99.90;;;;;;5074526;28;20792;-83
2023/01/01 09:52:39;;;;;;;1.43;0.73;;;13.60;99.90;;;;;;5074137;28;20816;-84
2023/01/01 09:55:14;;;;;;;0.90;0.63;;;14.00;99.90;;;;;;5073643;28;20465;-84
2023/01/01 09:57:41;;;;;;;0.40;0.40;;;14.40;99.90;;;;;;5073588;28;20480;-84
2023/01/01 10:00:16;;;;;;;2.60;1.00;;;14.70;99.90;;;;;;5073359;28;20438;-83
2023/01/01 10:03:03;;;;;;;1.00;0.70;;;15.20;99.90;;;;;;5073653;28;20433;-84
2023/01/01 10:05:37;;;;;;;1.67;0.97;;;15.80;99.90;;;;;;5073623;28;20470;-84
2023/01/01 10:08:14;;;;;;;0.80;0.73;;;16.30;99.90;;;;;;5073526;28;20425;-84
2023/01/01 10:10:51;;;;;;;2.23;1.17;;;16.70;99.90;;;;;;5073229;28;20901;-84
2023/01/01 10:13:25;;;;;;;6.60;0.77;;;16.90;99.90;;;;;;5073253;28;20995;-84
2023/01/01 10:15:58;;;;;;;3.43;1.00;;;17.20;99.90;;;;;;5073170;28;20430;-84
2023/01/01 10:18:32;;;;;;;0.93;0.50;;;17.30;99.90;;;;;;5073269;28;20788;-83
2023/01/01 10:21:04;;;;;;;0.70;0.60;;;17.00;99.90;;;;;;5073470;28;20434;-83
2023/01/01 10:23:35;;;;;;;1.93;1.57;;;16.80;99.90;;;;;;5073334;28;20478;-84
2023/01/01 10:26:08;;;;;;;2.50;1.10;;;16.40;99.90;;;;;;5073375;28;20453;-83
2023/01/01 10:28:44;;;;;;;3.60;0.80;;;16.20;99.90;;;;;;5073423;28;20421;-84
2023/01/01 10:31:20;;;;;;;0.90;0.50;;;16.10;99.90;;;;;;5073350;28;20433;-84
2023/01/01 10:33:47;;;;;;;0.67;0.57;;;15.90;99.90;;;;;;5072821;28;20458;-84
2023/01/01 10:36:17;;;;;;;2.17;0.77;;;15.70;99.90;;;;;;5073166;28;20453;-84
2023/01/01 10:38:44;;;;;;;0.70;0.60;;;15.60;99.90;;;;;;5074031;28;20441;-83
2023/01/01 10:41:12;;;;;;;0.90;0.80;;;15.60;99.90;;;;;;5073238;28;20442;-84
2023/01/01 10:43:39;;;;;;;0.60;0.60;;;15.60;99.90;;;;;;5072736;28;20999;-83
2023/01/01 10:46:06;;;;;;;0.50;0.50;;;15.60;99.90;;;;;;5072913;28;20449;-83
2023/01/01 10:48:35;;;;;;;1.73;0.80;;;15.50;99.90;;;;;;5073548;28;20462;-83
2023/01/01 10:51:04;;;;;;;0.90;0.70;;;15.40;99.90;;;;;;5072918;28;20499;-83
2023/01/01 10:53:34;;;;;;;1.03;0.50;;;15.30;99.90;;;;;;5072569;28;20454;-84
2023/01/01 10:56:04;;;;;;;0.50;0.50;;;15.20;99.90;;;;;;5073584;28;20457;-84
2023/01/01 10:58:43;;;;;;;1.50;0.60;;;15.20;99.90;;;;;;5072898;28;20471;-83
2023/01/01 11:01:19;;;;;;;1.00;0.70;;;15.20;99.90;;;;;;5072584;28;20437;-83
2023/01/01 11:03:58;;;;;;;1.67;0.70;;;15.30;99.90;;;;;;5072726;28;20468;-84
2023/01/01 11:06:27;;;;;;;1.67;0.80;;;15.20;99.90;;;;;;5072794;28;20536;-83
2023/01/01 11:08:56;;;;;;;0.50;0.50;;;15.20;99.90;;;;;;5072615;28;20448;-83
2023/01/01 11:11:27;;;;;;;1.53;0.87;;;15.20;99.90;;;;;;5072899;28;20445;-83
2023/01/01 11:13:56;;;;;;;0.70;0.50;;;15.30;99.90;;;;;;5072475;28;20469;-84
2023/01/01 11:16:24;;;;;;;0.87;0.70;;;15.30;99.90;;;;;;5072791;28;20528;-84
2023/01/01 11:18:51;;;;;;;0.67;0.67;;;15.30;99.90;;;;;;5072947;28;20437;-84
2023/01/01 11:21:24;;;;;;;0.83;0.50;;;15.20;99.90;;;;;;5072830;28;20453;-84
2023/01/01 11:24:09;;;;;;;1.93;0.60;;;15.20;99.90;;;;;;5072828;28;20492;-83
2023/01/01 11:26:35;;;;;;;2.50;0.80;;;15.20;99.90;;;;;;5072520;28;20445;-85
2023/01/01 11:29:16;;;;;;;0.70;0.50;;;15.20;99.90;;;;;;5072477;28;20457;-84
2023/01/01 11:31:44;;;;;;;2.40;0.60;;;15.30;99.90;;;;;;5072756;28;20430;-83
2023/01/01 11:34:28;;;;;;;0.80;0.53;;;15.20;99.90;;;;;;5072387;28;20469;-83
2023/01/01 11:37:11;;;;;;;0.53;0.53;;;15.30;99.90;;;;;;5072637;28;20469;-83
2023/01/01 11:39:42;;;;;;;0.83;0.60;;;15.20;99.90;;;;;;5072702;28;20437;-83
2023/01/01 11:42:17;;;;;;;3.53;0.87;;;15.30;99.90;;;;;;5072463;28;20410;-84
2023/01/01 11:44:47;;;;;;;1.40;0.70;;;15.20;99.90;;;;;;5072912;28;20458;-83
2023/01/01 11:47:26;;;;;;;1.33;0.60;;;15.30;99.90;;;;;;5076194;28;20505;-84
2023/01/01 11:49:59;;;;;;;0.70;0.40;;;15.20;99.90;;;;;;5075843;28;20430;-83
2023/01/01 11:52:36;;;;;;;2.33;0.70;;;15.30;99.90;;;;;;5076002;28;20454;-83
2023/01/01 11:55:20;;;;;;;0.50;0.40;;;15.30;99.90;;;;;;5075911;28;20823;-83
2023/01/01 11:57:59;;;;;;;1.20;0.53;;;15.20;99.90;;;;;;5075960;28;20472;-83
2023/01/01 12:00:28;;;;;;;1.17;0.73;;;15.20;99.90;;;;;;5075684;28;20905;-83
2023/01/01 12:03:00;;;;;;;0.90;0.60;;;15.20;99.90;;;;;;5075871;28;20457;-83
2023/01/01 12:05:36;;;;;;;0.50;0.50;;;15.20;99.90;;;;;;5075523;28;20972;-84
2023/01/01 12:08:08;;;;;;;0.67;0.50;;;15.10;99.90;;;;;;5075807;28;20436;-83
2023/01/01 12:10:45;;;;;;;0.57;0.57;;;15.10;99.90;;;;;;5076562;28;20438;-83
2023/01/01 12:13:18;;;;;;;1.13;0.60;;;15.10;99.90;;;;;;5075330;28;20477;-83
2023/01/01 12:15:51;;;;;;;0.90;0.90;;;15.00;99.90;;;;;;5075661;28;20426;-84
2023/01/01 12:18:25;;;;;;;0.60;0.60;;;15.00;99.90;;;;;;5075573;28;20474;-84
2023/01/01 12:20:58;;;;;;;0.50;0.43;;;14.90;99.90;;;;;;5075292;28;20500;-84
2023/01/01 12:23:27;;;;;;;1.73;0.90;;;14.90;99.90;;;;;;5075420;28;20434;-83
2023/01/01 12:26:06;;;;;;;3.70;0.87;;;14.90;99.90;;;;;;5075215;28;20433;-83
2023/01/01 12:28:42;;;;;;;0.50;0.50;;;14.90;99.90;;;;;;5075230;28;20426;-83
2023/01/01 12:31:16;;;;;;;1.17;0.87;;;14.90;99.90;;;;;;5075397;28;20789;-83
2023/01/01 12:34:04;;;;;;;0.80;0.50;;;14.90;99.90;;;;;;5076087;28;20466;-83
2023/01/01 12:36:42;;;;;;;1.23;0.70;;;14.80;99.90;;;;;;5074964;28;20434;-84
2023/01/01 12:39:53;;;;;;;0.73;0.50;;;14.90;99.90;;;;;;5075289;28;20785;-83
2023/01/01 12:42:30;;;;;;;0.43;0.43;;;14.90;99.90;;;;;;5075082;28;20438;-84
2023/01/01 12:45:13;;;;;;;0.90;0.70;;;14.90;99.90;;;;;;5075105;28;20469;-83
2023/01/01 12:47:48;;;;;;;0.83;0.70;;;14.90;99.90;;;;;;5075037;28;20433;-83
2023/01/01 12:50:24;;;;;;;2.90;0.53;;;14.90;99.90;;;;;;5075001;28;20528;-84
2023/01/01 12:53:00;;;;;;;0.87;0.63;;;14.80;99.90;;;;;;5074954;28;20436;-83
2023/01/01 12:55:57;;;;;;;0.50;0.50;;;14.80;99.90;;;;;;5074204;28;20828;-83
2023/01/01 12:58:30;;;;;;;1.00;0.80;;;14.80;99.90;;;;;;5074727;28;20473;-84
2023/01/01 13:01:00;;;;;;;0.60;0.40;;;14.80;99.90;;;;;;5074634;28;20457;-83
2023/01/01 13:03:32;;;;;;;0.90;0.60;;;14.70;99.90;;;;;;5074653;28;20468;-84
2023/01/01 13:06:00;;;;;;;0.90;0.60;;;14.60;99.90;;;;;;5074696;28;20433;-84